Time;durP1;ratioP1;P1;durP2;ratioP2;P2;SDS_P1;SDS_P2;PMS_P1;PMS_P2;Temp;Humidity;BMP_temperature;BMP_pressure;BME280_temperature;BME280_humidity;BME280_pressure;Samples;Min_cycle;Max_cycle;Signal;HPM_P1;HPM_P2
2022/11/26 00:01:18;;;;;;;;;;;5.80;99.90;;;;;;2025015;71;20118;-76
2022/11/26 00:03:45;;;;;;;;;;;5.70;99.90;;;;;;2008602;71;20175;-76
2022/11/26 00:06:28;;;;;;;;;;;5.70;99.90;;;;;;2025242;71;20387;-75
2022/11/26 00:08:55;;;;;;;;;;;5.70;99.90;;;;;;2025129;70;20342;-75
2022/11/26 00:11:22;;;;;;;;;;;5.70;99.90;;;;;;2025091;71;20135;-77
2022/11/26 00:13:48;;;;;;;;;;;5.60;99.90;;;;;;2025008;71;20313;-76
2022/11/26 00:16:15;;;;;;;;;;;5.50;99.90;;;;;;2025039;71;20131;-76
2022/11/26 00:18:42;;;;;;;;;;;5.40;99.90;;;;;;2025032;71;20332;-75
2022/11/26 00:21:15;;;;;;;;;;;5.30;99.90;;;;;;2024822;71;20140;-75
2022/11/26 00:23:42;;;;;;;;;;;5.30;99.90;;;;;;2008169;71;20106;-75
2022/11/26 00:26:11;;;;;;;;;;;5.40;99.90;;;;;;2024866;71;20102;-76
2022/11/26 00:28:37;;;;;;;;;;;5.30;99.90;;;;;;2024743;71;20322;-76
2022/11/26 00:31:08;;;;;;;;;;;5.30;99.90;;;;;;2024910;71;20166;-76
2022/11/26 00:33:37;;;;;;;;;;;5.40;99.90;;;;;;2024600;70;20114;-75
2022/11/26 00:36:05;;;;;;;;;;;5.30;99.90;;;;;;2025144;71;20109;-75
2022/11/26 00:38:32;;;;;;;;;;;5.30;99.90;;;;;;2025095;71;20309;-77
2022/11/26 00:40:59;;;;;;;;;;;5.40;99.90;;;;;;2025377;71;20139;-76
2022/11/26 00:43:27;;;;;;;;;;;5.40;99.90;;;;;;2025398;71;20091;-75
2022/11/26 00:45:56;;;;;;;;;;;5.40;99.90;;;;;;2025103;71;20142;-76
2022/11/26 00:48:22;;;;;;;;;;;5.30;99.90;;;;;;2024305;70;20369;-75
2022/11/26 00:50:49;;;;;;;;;;;5.30;99.90;;;;;;2024947;71;20189;-76
2022/11/26 00:53:16;;;;;;;;;;;5.50;99.90;;;;;;2024827;71;20134;-75
2022/11/26 00:55:44;;;;;;;;;;;5.60;99.90;;;;;;2007914;71;20101;-75
2022/11/26 00:58:12;;;;;;;;;;;5.60;99.90;;;;;;2024882;71;20164;-75
2022/11/26 01:00:39;;;;;;;;;;;5.60;99.90;;;;;;2024988;70;20135;-76
2022/11/26 01:03:06;;;;;;;;;;;5.60;99.90;;;;;;2025269;71;20130;-76
2022/11/26 01:05:32;;;;;;;;;;;5.60;99.90;;;;;;2024801;71;20117;-76
2022/11/26 01:07:59;;;;;;;;;;;5.60;99.90;;;;;;2024701;71;20134;-75
2022/11/26 01:10:27;;;;;;;;;;;5.50;99.90;;;;;;2024667;71;20164;-75
2022/11/26 01:12:54;;;;;;;;;;;5.50;99.90;;;;;;2024402;71;20140;-75
2022/11/26 01:15:21;;;;;;;;;;;5.40;99.90;;;;;;2024584;71;20133;-75
2022/11/26 01:17:48;;;;;;;;;;;5.60;99.90;;;;;;2024395;71;20140;-75
2022/11/26 01:20:20;;;;;;;;;;;5.80;99.90;;;;;;2024444;71;20105;-75
2022/11/26 01:22:47;;;;;;;;;;;5.80;99.90;;;;;;2024376;71;20152;-77
2022/11/26 01:25:14;;;;;;;;;;;5.90;99.90;;;;;;2024338;71;20174;-77
2022/11/26 01:27:41;;;;;;;;;;;6.00;99.90;;;;;;2024453;71;20211;-76
2022/11/26 01:30:09;;;;;;;;;;;5.90;99.90;;;;;;2024509;71;20184;-75
2022/11/26 01:32:36;;;;;;;;;;;5.70;99.90;;;;;;2023552;70;20106;-76
2022/11/26 01:35:03;;;;;;;;;;;5.80;99.90;;;;;;2024419;71;20098;-76
2022/11/26 01:37:29;;;;;;;;;;;5.80;99.90;;;;;;2024359;71;20381;-76
2022/11/26 01:39:56;;;;;;;;;;;5.90;99.90;;;;;;2024578;71;20167;-76
2022/11/26 01:42:27;;;;;;;;;;;5.90;99.90;;;;;;2024431;71;20411;-76
2022/11/26 01:44:54;;;;;;;;;;;6.00;99.90;;;;;;2024123;70;20148;-76
2022/11/26 01:47:22;;;;;;;;;;;6.00;99.90;;;;;;2024422;71;20254;-76
2022/11/26 01:50:07;;;;;;;;;;;5.90;99.90;;;;;;2024428;71;20157;-76
2022/11/26 01:52:34;;;;;;;;;;;5.80;99.90;;;;;;2024420;71;20117;-76
2022/11/26 01:55:00;;;;;;;;;;;6.00;99.90;;;;;;2024454;71;20106;-76
2022/11/26 01:57:27;;;;;;;;;;;5.90;99.90;;;;;;2024347;71;20191;-76
2022/11/26 01:59:55;;;;;;;;;;;6.00;99.90;;;;;;2024388;71;20139;-74
2022/11/26 02:02:22;;;;;;;;;;;6.00;99.90;;;;;;2024577;71;20138;-76
2022/11/26 02:04:50;;;;;;;;;;;6.00;99.90;;;;;;2025030;71;20109;-76
2022/11/26 02:07:17;;;;;;;;;;;5.90;99.90;;;;;;1992863;71;20106;-76
2022/11/26 02:09:44;;;;;;;;;;;6.00;99.90;;;;;;2025107;71;20127;-76
2022/11/26 02:12:11;;;;;;;;;;;6.00;99.90;;;;;;2027156;71;20127;-76
2022/11/26 02:14:38;;;;;;;;;;;6.10;99.90;;;;;;2025845;71;20149;-76
2022/11/26 02:17:06;;;;;;;;;;;6.10;99.90;;;;;;2028309;71;20138;-75
2022/11/26 02:19:53;;;;;;;;;;;6.10;99.90;;;;;;2028041;71;20142;-75
2022/11/26 02:22:21;;;;;;;;;;;6.10;99.90;;;;;;2024766;71;20313;-74
2022/11/26 02:25:06;;;;;;;;;;;6.00;99.90;;;;;;2024517;71;20102;-76
2022/11/26 02:27:40;;;;;;;;;;;5.90;99.90;;;;;;2024527;71;20113;-76
2022/11/26 02:30:11;;;;;;;;;;;5.90;99.90;;;;;;2024482;71;20131;-76
2022/11/26 02:32:42;;;;;;;;;;;5.90;99.90;;;;;;2024350;71;20363;-75
2022/11/26 02:35:22;;;;;;;;;;;6.00;99.90;;;;;;2023439;70;20164;-76
2022/11/26 02:37:59;;;;;;;;;;;6.10;99.90;;;;;;2024414;71;20329;-76
2022/11/26 02:40:26;;;;;;;;;;;6.10;99.90;;;;;;2023803;70;20159;-77
2022/11/26 02:42:53;;;;;;;;;;;6.20;99.90;;;;;;2024330;71;20106;-76
2022/11/26 02:45:21;;;;;;;;;;;6.20;99.90;;;;;;2024407;71;20097;-75
2022/11/26 02:47:49;;;;;;;;;;;6.10;99.90;;;;;;2007775;71;20105;-75
2022/11/26 02:50:17;;;;;;;;;;;6.00;99.90;;;;;;2024386;71;20090;-75
2022/11/26 02:52:43;;;;;;;;;;;6.00;99.90;;;;;;2024276;71;20107;-75
2022/11/26 02:55:10;;;;;;;;;;;6.10;99.90;;;;;;2024333;71;20144;-75
2022/11/26 02:57:38;;;;;;;;;;;6.10;99.90;;;;;;2024193;71;20140;-76
2022/11/26 03:00:05;;;;;;;;;;;6.10;99.90;;;;;;2024368;71;20106;-75
2022/11/26 03:02:34;;;;;;;;;;;6.20;99.90;;;;;;2024285;71;20179;-76
2022/11/26 03:05:01;;;;;;;;;;;6.10;99.90;;;;;;2024448;71;20133;-76
2022/11/26 03:07:30;;;;;;;;;;;6.10;99.90;;;;;;2024457;71;20325;-75
2022/11/26 03:09:58;;;;;;;;;;;6.20;99.90;;;;;;2024458;71;20193;-75
2022/11/26 03:12:24;;;;;;;;;;;6.10;99.90;;;;;;2024425;71;20145;-76
2022/11/26 03:14:51;;;;;;;;;;;6.00;99.90;;;;;;2024388;71;20152;-75
2022/11/26 03:17:18;;;;;;;;;;;6.00;99.90;;;;;;2024352;71;20121;-76
2022/11/26 03:19:45;;;;;;;;;;;6.00;99.90;;;;;;2024256;71;20168;-76
2022/11/26 03:22:12;;;;;;;;;;;6.00;99.90;;;;;;2024441;71;20243;-75
2022/11/26 03:24:38;;;;;;;;;;;6.10;99.90;;;;;;2024274;71;20345;-76
2022/11/26 03:27:05;;;;;;;;;;;6.10;99.90;;;;;;2024297;71;20149;-75
2022/11/26 03:29:32;;;;;;;;;;;6.10;99.90;;;;;;2024383;71;20165;-76
2022/11/26 03:31:58;;;;;;;;;;;6.00;99.90;;;;;;2024279;71;20135;-76
2022/11/26 03:34:25;;;;;;;;;;;6.10;99.90;;;;;;2024444;71;20118;-76
2022/11/26 03:36:52;;;;;;;;;;;5.90;99.90;;;;;;2024385;71;20204;-75
2022/11/26 03:39:18;;;;;;;;;;;5.90;99.90;;;;;;2024260;71;20151;-76
2022/11/26 03:41:45;;;;;;;;;;;6.00;99.90;;;;;;2024349;71;20134;-76
2022/11/26 03:44:12;;;;;;;;;;;5.90;99.90;;;;;;2024255;71;20122;-76
2022/11/26 03:46:39;;;;;;;;;;;5.80;99.90;;;;;;2024278;71;20144;-76
2022/11/26 03:49:06;;;;;;;;;;;5.90;99.90;;;;;;2024407;71;20098;-75
2022/11/26 03:51:32;;;;;;;;;;;6.00;99.90;;;;;;2024306;71;20183;-75
2022/11/26 03:53:59;;;;;;;;;;;6.00;99.90;;;;;;2024352;71;20160;-75
2022/11/26 03:56:26;;;;;;;;;;;5.90;99.90;;;;;;2024173;71;20136;-75
2022/11/26 03:58:52;;;;;;;;;;;5.90;99.90;;;;;;2024165;71;20159;-74
2022/11/26 04:01:19;;;;;;;;;;;6.00;99.90;;;;;;2024390;71;20102;-75
2022/11/26 04:03:46;;;;;;;;;;;6.10;99.90;;;;;;2024526;71;20169;-75
2022/11/26 04:06:13;;;;;;;;;;;6.00;99.90;;;;;;2024344;71;20136;-75
2022/11/26 04:08:40;;;;;;;;;;;6.10;99.90;;;;;;2024378;71;20193;-75
2022/11/26 04:11:07;;;;;;;;;;;5.90;99.90;;;;;;2024487;71;20130;-75
2022/11/26 04:13:33;;;;;;;;;;;5.80;99.90;;;;;;2024464;71;20142;-75
2022/11/26 04:16:00;;;;;;;;;;;5.90;99.90;;;;;;2024309;71;20110;-74
2022/11/26 04:18:27;;;;;;;;;;;5.90;99.90;;;;;;2024390;71;20143;-74
2022/11/26 04:20:53;;;;;;;;;;;5.80;99.90;;;;;;2024426;71;20247;-75
2022/11/26 04:23:20;;;;;;;;;;;5.80;99.90;;;;;;2024439;71;20110;-75
2022/11/26 04:25:47;;;;;;;;;;;5.80;99.90;;;;;;2024379;71;20101;-75
2022/11/26 04:28:14;;;;;;;;;;;5.70;99.90;;;;;;2024394;71;20186;-76
2022/11/26 04:30:41;;;;;;;;;;;5.70;99.90;;;;;;2024459;71;20105;-75
2022/11/26 04:33:07;;;;;;;;;;;5.60;99.90;;;;;;2024349;71;20098;-75
2022/11/26 04:35:34;;;;;;;;;;;5.50;99.90;;;;;;2024435;71;20094;-75
2022/11/26 04:38:01;;;;;;;;;;;5.40;99.90;;;;;;2024314;71;20095;-74
2022/11/26 04:40:27;;;;;;;;;;;5.40;99.90;;;;;;2024447;71;20106;-75
2022/11/26 04:42:54;;;;;;;;;;;5.40;99.90;;;;;;2024405;71;20094;-75
2022/11/26 04:45:21;;;;;;;;;;;5.40;99.90;;;;;;2024415;71;20129;-76
2022/11/26 04:47:47;;;;;;;;;;;5.40;99.90;;;;;;2024605;71;20090;-76
2022/11/26 04:50:14;;;;;;;;;;;5.40;99.90;;;;;;2024495;71;20102;-76
2022/11/26 04:52:41;;;;;;;;;;;5.40;99.90;;;;;;2024357;71;20215;-77
2022/11/26 04:55:08;;;;;;;;;;;5.30;99.90;;;;;;2024429;71;20164;-76
2022/11/26 04:57:34;;;;;;;;;;;5.20;99.90;;;;;;2024336;71;20094;-76
2022/11/26 05:00:01;;;;;;;;;;;5.30;99.90;;;;;;2024441;71;20155;-77
2022/11/26 05:02:28;;;;;;;;;;;5.30;99.90;;;;;;2024400;71;20138;-77
2022/11/26 05:04:55;;;;;;;;;;;5.40;99.90;;;;;;2024376;71;20148;-77
2022/11/26 05:07:21;;;;;;;;;;;5.30;99.90;;;;;;2024513;71;20182;-76
2022/11/26 05:09:48;;;;;;;;;;;5.30;99.90;;;;;;2024512;71;20170;-77
2022/11/26 05:12:15;;;;;;;;;;;5.20;99.90;;;;;;2024559;71;20164;-76
2022/11/26 05:14:41;;;;;;;;;;;5.20;99.90;;;;;;2024537;71;20190;-76
2022/11/26 05:17:08;;;;;;;;;;;5.10;99.90;;;;;;2024498;71;20106;-75
2022/11/26 05:19:35;;;;;;;;;;;5.10;99.90;;;;;;2024424;71;20143;-75
2022/11/26 05:22:01;;;;;;;;;;;5.20;99.90;;;;;;2024416;71;20416;-74
2022/11/26 05:24:28;;;;;;;;;;;5.20;99.90;;;;;;2024347;71;20101;-75
2022/11/26 05:26:55;;;;;;;;;;;5.20;99.90;;;;;;2024429;71;20352;-75
2022/11/26 05:29:22;;;;;;;;;;;5.20;99.90;;;;;;2024338;71;20168;-75
2022/11/26 05:31:48;;;;;;;;;;;5.30;99.90;;;;;;2024412;71;20352;-75
2022/11/26 05:34:15;;;;;;;;;;;5.30;99.90;;;;;;2024345;71;20132;-75
2022/11/26 05:36:42;;;;;;;;;;;5.10;99.90;;;;;;2024450;71;20428;-75
2022/11/26 05:39:08;;;;;;;;;;;5.10;99.90;;;;;;2024372;71;20121;-75
2022/11/26 05:41:35;;;;;;;;;;;5.00;99.90;;;;;;2024635;71;20136;-75
2022/11/26 05:44:02;;;;;;;;;;;5.00;99.90;;;;;;2024721;71;20189;-76
2022/11/26 05:46:28;;;;;;;;;;;5.00;99.90;;;;;;2024690;71;20110;-75
2022/11/26 05:48:55;;;;;;;;;;;5.10;99.90;;;;;;2024741;71;20312;-74
2022/11/26 05:51:22;;;;;;;;;;;5.10;99.90;;;;;;2024779;71;20173;-77
2022/11/26 05:53:49;;;;;;;;;;;5.10;99.90;;;;;;2024945;71;20342;-78
2022/11/26 05:56:15;;;;;;;;;;;5.30;99.90;;;;;;2025125;71;20133;-78
2022/11/26 05:58:42;;;;;;;;;;;5.50;99.90;;;;;;2024767;71;20376;-78
2022/11/26 06:01:09;;;;;;;;;;;5.40;99.90;;;;;;2024805;71;20098;-76
2022/11/26 06:03:36;;;;;;;;;;;5.30;99.90;;;;;;2024882;71;20094;-77
2022/11/26 06:06:03;;;;;;;;;;;5.60;99.90;;;;;;2024789;71;20140;-77
2022/11/26 06:08:29;;;;;;;;;;;5.60;99.90;;;;;;2024769;71;20373;-77
2022/11/26 06:10:56;;;;;;;;;;;5.60;99.90;;;;;;2024785;71;20187;-78
2022/11/26 06:13:23;;;;;;;;;;;5.50;99.90;;;;;;2024742;71;20110;-77
2022/11/26 06:15:49;;;;;;;;;;;5.40;99.90;;;;;;2024709;71;20147;-76
2022/11/26 06:18:17;;;;;;;;;;;5.50;99.90;;;;;;2024686;71;20109;-75
2022/11/26 06:20:43;;;;;;;;;;;5.50;99.90;;;;;;2024771;71;20098;-76
2022/11/26 06:23:10;;;;;;;;;;;5.50;99.90;;;;;;2024326;71;20110;-76
2022/11/26 06:25:38;;;;;;;;;;;5.60;99.90;;;;;;2024520;71;20090;-76
2022/11/26 06:28:05;;;;;;;;;;;5.50;99.90;;;;;;2024774;71;20186;-75
2022/11/26 06:30:32;;;;;;;;;;;5.50;99.90;;;;;;2024685;71;20153;-75
2022/11/26 06:32:59;;;;;;;;;;;5.70;99.90;;;;;;2024771;71;20134;-76
2022/11/26 06:35:25;;;;;;;;;;;5.70;99.90;;;;;;2024662;71;20131;-75
2022/11/26 06:37:52;;;;;;;;;;;5.70;99.90;;;;;;2024590;71;20164;-75
2022/11/26 06:40:19;;;;;;;;;;;5.70;99.90;;;;;;2024585;71;20118;-75
2022/11/26 06:42:49;;;;;;;;;;;5.60;99.90;;;;;;2024597;71;20136;-75
2022/11/26 06:45:16;;;;;;;;;;;5.80;99.90;;;;;;2024821;71;20172;-76
2022/11/26 06:47:43;;;;;;;;;;;5.80;99.90;;;;;;2024721;71;20106;-76
2022/11/26 06:50:09;;;;;;;;;;;5.80;99.90;;;;;;2024845;71;20160;-76
2022/11/26 06:52:36;;;;;;;;;;;5.90;99.90;;;;;;2024704;71;20101;-74
2022/11/26 06:55:07;;;;;;;;;;;5.80;99.90;;;;;;2024679;71;20339;-74
2022/11/26 06:57:34;;;;;;;;;;;5.80;99.90;;;;;;2024996;71;20106;-74
2022/11/26 07:00:01;;;;;;;;;;;5.70;99.90;;;;;;2025548;71;20109;-74
2022/11/26 07:02:27;;;;;;;;;;;5.60;99.90;;;;;;2025008;71;20185;-74
2022/11/26 07:04:56;;;;;;;;;;;5.70;99.90;;;;;;2025097;71;20110;-74
2022/11/26 07:07:22;;;;;;;;;;;5.70;99.90;;;;;;2025031;71;20320;-74
2022/11/26 07:09:49;;;;;;;;;;;5.70;99.90;;;;;;2024823;71;20109;-74
2022/11/26 07:12:16;;;;;;;;;;;5.70;99.90;;;;;;2025011;71;20317;-76
2022/11/26 07:14:42;;;;;;;;;;;5.70;99.90;;;;;;2024924;71;20135;-77
2022/11/26 07:17:09;;;;;;;;;;;5.80;99.90;;;;;;2025043;71;20094;-79
2022/11/26 07:19:36;;;;;;;;;;;5.80;99.90;;;;;;2025031;71;20153;-76
2022/11/26 07:22:03;;;;;;;;;;;5.80;99.90;;;;;;2025138;71;20183;-75
2022/11/26 07:24:30;;;;;;;;;;;5.80;99.90;;;;;;2024933;71;20196;-77
2022/11/26 07:26:56;;;;;;;;;;;5.90;99.90;;;;;;2024949;71;20371;-75
2022/11/26 07:29:25;;;;;;;;;;;5.90;99.90;;;;;;2025020;71;20106;-77
2022/11/26 07:31:51;;;;;;;;;;;5.90;99.90;;;;;;2024941;71;20282;-76
2022/11/26 07:34:18;;;;;;;;;;;5.80;99.90;;;;;;2025203;71;20164;-76
2022/11/26 07:36:45;;;;;;;;;;;5.90;99.90;;;;;;2025103;71;20192;-75
2022/11/26 07:39:11;;;;;;;;;;;5.90;99.90;;;;;;2025164;71;20153;-75
2022/11/26 07:41:38;;;;;;;;;;;6.10;99.90;;;;;;2025285;71;20341;-75
2022/11/26 07:44:05;;;;;;;;;;;6.20;99.90;;;;;;2025074;71;20136;-74
2022/11/26 07:46:32;;;;;;;;;;;6.30;99.90;;;;;;2025125;71;20197;-74
2022/11/26 07:48:58;;;;;;;;;;;6.20;99.90;;;;;;2025029;71;20119;-75
2022/11/26 07:51:27;;;;;;;;;;;6.20;99.90;;;;;;2025081;71;20142;-74
2022/11/26 07:53:54;;;;;;;;;;;6.30;99.90;;;;;;2025095;71;20130;-74
2022/11/26 07:56:21;;;;;;;;;;;6.40;99.90;;;;;;2024916;71;20110;-74
2022/11/26 07:58:47;;;;;;;;;;;6.40;99.90;;;;;;2025035;71;20366;-74
2022/11/26 08:01:18;;;;;;;;;;;6.30;99.90;;;;;;2025142;71;20102;-75
2022/11/26 08:03:46;;;;;;;;;;;6.40;99.90;;;;;;2023524;70;20355;-74
2022/11/26 08:06:13;;;;;;;;;;;6.40;99.90;;;;;;2025164;71;20123;-74
2022/11/26 08:08:40;;;;;;;;;;;6.40;99.90;;;;;;2025130;71;20247;-78
2022/11/26 08:11:20;;;;;;;;;;;6.20;99.90;;;;;;2025272;71;20176;-81
2022/11/26 08:13:46;;;;;;;;;;;6.20;99.90;;;;;;2025156;71;20134;-79
2022/11/26 08:16:13;;;;;;;;;;;6.20;99.90;;;;;;2025656;71;20188;-83
2022/11/26 08:18:42;;;;;;;;;;;6.20;99.90;;;;;;2025204;71;20173;-76
2022/11/26 08:21:08;;;;;;;;;;;6.20;99.90;;;;;;2025211;71;20127;-78
2022/11/26 08:23:35;;;;;;;;;;;6.30;99.90;;;;;;2025104;71;20127;-78
2022/11/26 08:26:05;;;;;;;;;;;6.30;99.90;;;;;;2024933;71;20150;-78
2022/11/26 08:28:33;;;;;;;;;;;6.40;99.90;;;;;;2024598;70;20200;-77
2022/11/26 08:31:02;;;;;;;;;;;6.50;99.90;;;;;;2025091;71;20130;-78
2022/11/26 08:33:29;;;;;;;;;;;6.50;99.90;;;;;;2025052;71;20115;-77
2022/11/26 08:35:58;;;;;;;;;;;6.70;99.90;;;;;;2025081;71;20096;-77
2022/11/26 08:38:26;;;;;;;;;;;6.80;99.90;;;;;;2024846;71;20157;-78
2022/11/26 08:40:53;;;;;;;;;;;6.80;99.90;;;;;;2024862;71;20169;-78
2022/11/26 08:43:20;;;;;;;;;;;6.70;99.90;;;;;;2025020;71;20127;-76
2022/11/26 08:45:57;;;;;;;;;;;6.70;99.90;;;;;;2025183;71;20102;-77
2022/11/26 08:48:25;;;;;;;;;;;6.80;99.90;;;;;;2024916;71;20143;-77
2022/11/26 08:50:58;;;;;;;;;;;6.70;99.90;;;;;;2024967;71;20180;-77
2022/11/26 08:53:24;;;;;;;;;;;6.80;99.90;;;;;;2024761;71;20380;-80
2022/11/26 08:55:51;;;;;;;;;;;6.80;99.90;;;;;;2025271;71;20161;-78
2022/11/26 08:58:18;;;;;;;;;;;6.80;99.90;;;;;;2024963;71;20324;-76
2022/11/26 09:00:44;;;;;;;;;;;6.80;99.90;;;;;;2025185;71;20110;-77
2022/11/26 09:03:11;;;;;;;;;;;6.80;99.90;;;;;;2025031;71;20374;-77
2022/11/26 09:05:38;;;;;;;;;;;7.10;99.90;;;;;;2024913;71;20128;-76
2022/11/26 09:08:04;;;;;;;;;;;7.20;99.90;;;;;;2024580;71;20106;-76
2022/11/26 09:10:31;;;;;;;;;;;7.00;99.90;;;;;;2024696;71;20101;-76
2022/11/26 09:12:58;;;;;;;;;;;6.90;99.90;;;;;;2024404;71;20106;-77
2022/11/26 09:15:25;;;;;;;;;;;7.20;99.90;;;;;;2024437;71;20106;-77
2022/11/26 09:17:51;;;;;;;;;;;7.20;99.90;;;;;;2024634;71;20151;-77
2022/11/26 09:20:18;;;;;;;;;;;7.30;99.90;;;;;;2024548;71;20321;-77
2022/11/26 09:22:45;;;;;;;;;;;7.40;99.90;;;;;;2024562;71;20156;-76
2022/11/26 09:25:11;;;;;;;;;;;7.50;99.90;;;;;;2024438;71;20086;-76
2022/11/26 09:27:39;;;;;;;;;;;7.50;99.90;;;;;;2024499;71;20131;-77
2022/11/26 09:30:08;;;;;;;;;;;7.30;99.90;;;;;;2024442;71;20141;-77
2022/11/26 09:32:36;;;;;;;;;;;7.20;99.90;;;;;;2024286;71;20122;-76
2022/11/26 09:35:03;;;;;;;;;;;7.30;99.90;;;;;;2024441;71;20101;-76
2022/11/26 09:37:30;;;;;;;;;;;7.50;99.90;;;;;;2024473;71;20374;-75
2022/11/26 09:39:57;;;;;;;;;;;7.80;99.90;;;;;;2024481;71;20337;-75
2022/11/26 09:42:42;;;;;;;;;;;8.20;99.90;;;;;;2024457;71;20192;-76
2022/11/26 09:45:18;;;;;;;;;;;8.00;99.90;;;;;;2024323;71;20110;-76
2022/11/26 09:47:46;;;;;;;;;;;7.80;99.90;;;;;;2024147;71;20105;-77
2022/11/26 09:50:16;;;;;;;;;;;7.80;99.90;;;;;;2024223;71;20230;-76
2022/11/26 09:52:44;;;;;;;;;;;8.00;99.90;;;;;;2024427;71;20137;-75
2022/11/26 09:55:15;;;;;;;;;;;8.20;99.90;;;;;;2024335;71;20144;-77
2022/11/26 09:57:44;;;;;;;;;;;8.30;99.90;;;;;;2024142;69;20175;-80
2022/11/26 10:00:21;;;;;;;;;;;8.60;99.90;;;;;;2023058;70;20330;-74
2022/11/26 10:02:49;;;;;;;;;;;8.80;99.90;;;;;;2024481;71;20341;-79
2022/11/26 10:05:16;;;;;;;;;;;8.80;99.90;;;;;;2024447;70;20132;-75
2022/11/26 10:07:57;;;;;;;;;;;8.90;99.90;;;;;;2024405;71;20234;-78
2022/11/26 10:10:25;;;;;;;;;;;8.70;99.90;;;;;;2024223;70;20145;-79
2022/11/26 10:13:06;;;;;;;;;;;9.20;99.90;;;;;;2024501;71;20130;-79
2022/11/26 10:15:52;;;;;;;;;;;9.60;99.90;;;;;;2023245;70;20357;-79
2022/11/26 10:18:23;;;;;;;;;;;9.50;99.90;;;;;;2024319;71;20160;-77
2022/11/26 10:21:08;;;;;;;;;;;9.30;99.90;;;;;;2024239;70;20136;-77
2022/11/26 10:23:50;;;;;;;;;;;9.20;99.90;;;;;;2024483;71;20095;-77
2022/11/26 10:26:18;;;;;;;;;;;9.50;99.90;;;;;;1952082;71;20098;-78
2022/11/26 10:28:45;;;;;;;;;;;9.80;99.90;;;;;;2024555;71;20306;-79
2022/11/26 10:31:20;;;;;;;;;;;9.90;99.90;;;;;;2024554;71;20329;-82
2022/11/26 10:33:57;;;;;;;;;;;10.00;99.90;;;;;;2024231;71;20127;-81
2022/11/26 10:36:25;;;;;;;;;;;10.10;99.90;;;;;;2024578;71;20166;-81
2022/11/26 10:38:55;;;;;;;;;;;10.10;99.90;;;;;;2022814;70;20154;-80
2022/11/26 10:41:21;;;;;;;;;;;10.00;99.90;;;;;;2024463;70;20241;-81
2022/11/26 10:43:48;;;;;;;;;;;10.10;99.90;;;;;;2024705;71;20109;-82
2022/11/26 10:46:31;;;;;;;;;;;10.40;99.90;;;;;;2024619;71;20138;-81
2022/11/26 10:49:16;;;;;;;;;;;10.80;99.90;;;;;;2024612;71;20168;-80
2022/11/26 10:51:44;;;;;;;;;;;11.20;99.90;;;;;;2024967;71;20365;-80
2022/11/26 10:54:12;;;;;;;;;;;11.10;99.90;;;;;;2024684;70;20102;-80
2022/11/26 10:56:45;;;;;;;;;;;11.40;99.90;;;;;;2023828;70;20361;-78
2022/11/26 10:59:35;;;;;;;;;;;11.10;99.90;;;;;;2024701;71;20134;-78
2022/11/26 11:02:01;;;;;;;;;;;11.00;99.90;;;;;;2024957;70;20353;-77
2022/11/26 11:04:32;;;;;;;;;;;11.80;99.90;;;;;;2023300;70;20177;-77
2022/11/26 11:06:58;;;;;;;;;;;11.50;99.90;;;;;;2024748;71;20109;-77
2022/11/26 11:09:29;;;;;;;;;;;11.20;99.90;;;;;;2024519;71;20118;-78
2022/11/26 11:12:14;;;;;;;;;;;11.00;99.90;;;;;;2024834;71;20133;-79
2022/11/26 11:14:43;;;;;;;;;;;11.30;99.90;;;;;;2025040;71;20090;-78
2022/11/26 11:17:11;;;;;;;;;;;11.80;99.90;;;;;;2024605;71;20126;-79
2022/11/26 11:19:38;;;;;;;;;;;11.90;99.90;;;;;;2011162;71;20106;-80
2022/11/26 11:22:09;;;;;;;;;;;11.60;99.90;;;;;;2009143;71;20113;-80
2022/11/26 11:24:34;;;;;;;;;;;11.20;99.90;;;;;;2025005;70;20161;-78
2022/11/26 11:27:02;;;;;;;;;;;11.50;99.90;;;;;;2025147;71;20122;-80
2022/11/26 11:29:31;;;;;;;;;;;11.30;99.90;;;;;;2008442;71;20098;-79
2022/11/26 11:31:59;;;;;;;;;;;10.90;99.90;;;;;;2007870;71;20098;-77
2022/11/26 11:34:32;;;;;;;;;;;10.70;99.90;;;;;;2025180;71;20350;-80
2022/11/26 11:37:00;;;;;;;;;;;10.80;99.90;;;;;;2024964;71;20095;-80
2022/11/26 11:39:28;;;;;;;;;;;10.80;99.90;;;;;;2025011;71;20135;-80
2022/11/26 11:41:54;;;;;;;;;;;10.80;99.90;;;;;;2008399;71;20321;-80
2022/11/26 11:44:25;;;;;;;;;;;10.70;99.90;;;;;;2025221;71;20166;-80
2022/11/26 11:46:56;;;;;;;;;;;10.30;99.90;;;;;;2025164;71;20140;-80
2022/11/26 11:49:41;;;;;;;;;;;10.50;99.90;;;;;;2025223;70;20130;-80
2022/11/26 11:52:26;;;;;;;;;;;11.40;99.90;;;;;;2025040;71;20127;-79
2022/11/26 11:54:55;;;;;;;;;;;11.50;99.90;;;;;;2025041;71;20094;-77
2022/11/26 11:57:30;;;;;;;;;;;12.20;99.90;;;;;;2024646;70;20095;-78
2022/11/26 12:00:12;;;;;;;;;;;12.20;99.90;;;;;;2024721;70;20109;-79
2022/11/26 12:02:55;;;;;;;;;;;11.90;99.90;;;;;;2024710;69;20134;-76
2022/11/26 12:05:33;;;;;;;;;;;12.00;99.90;;;;;;2025089;71;20331;-77
2022/11/26 12:08:10;;;;;;;;;;;11.90;99.90;;;;;;2024661;70;20366;-77
2022/11/26 12:10:48;;;;;;;;;;;12.10;99.90;;;;;;2025241;71;20142;-76
2022/11/26 12:13:14;;;;;;;;;;;12.10;99.90;;;;;;2025434;70;20374;-76
2022/11/26 12:15:45;;;;;;;;;;;12.20;99.90;;;;;;2025178;71;20199;-76
2022/11/26 12:18:13;;;;;;;;;;;12.30;99.90;;;;;;2024917;71;20134;-76
2022/11/26 12:20:43;;;;;;;;;;;12.30;99.90;;;;;;2025082;70;20394;-75
2022/11/26 12:23:17;;;;;;;;;;;12.90;99.90;;;;;;2024839;71;20113;-76
2022/11/26 12:25:45;;;;;;;;;;;13.80;99.90;;;;;;2024744;71;20138;-78
2022/11/26 12:28:19;;;;;;;;;;;13.60;99.90;;;;;;2024602;71;20140;-78
2022/11/26 12:30:53;;;;;;;;;;;12.70;99.90;;;;;;2024873;71;20295;-78
2022/11/26 12:33:24;;;;;;;;;;;13.30;99.90;;;;;;2024806;71;20098;-78
2022/11/26 12:35:53;;;;;;;;;;;14.30;99.90;;;;;;2024834;71;20136;-78
2022/11/26 12:38:33;;;;;;;;;;;14.60;99.90;;;;;;2024736;71;20110;-79
2022/11/26 12:41:16;;;;;;;;;;;13.80;99.90;;;;;;1952149;71;20109;-79
2022/11/26 12:43:54;;;;;;;;;;;13.70;99.90;;;;;;2024195;70;20201;-77
2022/11/26 12:46:22;;;;;;;;;;;12.60;99.90;;;;;;2024509;70;20190;-78
2022/11/26 12:48:50;;;;;;;;;;;12.80;99.90;;;;;;2024970;71;20204;-77
2022/11/26 12:51:19;;;;;;;;;;;12.80;99.90;;;;;;2025063;71;20139;-78
2022/11/26 12:53:47;;;;;;;;;;;12.70;99.90;;;;;;2025076;71;20205;-78
2022/11/26 12:56:15;;;;;;;;;;;12.70;99.90;;;;;;2024776;71;20356;-77
2022/11/26 12:58:50;;;;;;;;;;;12.70;99.90;;;;;;2024606;70;20139;-78
2022/11/26 13:01:16;;;;;;;;;;;12.90;99.90;;;;;;1969997;71;20301;-79
2022/11/26 13:03:43;;;;;;;;;;;13.10;99.90;;;;;;2025020;71;20162;-77
2022/11/26 13:06:26;;;;;;;;;;;13.40;99.90;;;;;;2024968;71;20407;-77
2022/11/26 13:09:13;;;;;;;;;;;14.00;99.90;;;;;;2024649;70;20144;-78
2022/11/26 13:11:47;;;;;;;;;;;14.10;99.90;;;;;;2024869;71;20095;-78
2022/11/26 13:14:22;;;;;;;;;;;14.20;99.90;;;;;;2022942;70;20250;-78
2022/11/26 13:17:02;;;;;;;;;;;14.30;99.90;;;;;;2024533;70;20109;-78
2022/11/26 13:19:32;;;;;;;;;;;14.50;99.90;;;;;;2024804;71;20090;-77
2022/11/26 13:22:03;;;;;;;;;;;13.80;99.90;;;;;;2025367;71;20121;-75
2022/11/26 13:24:34;;;;;;;;;;;14.20;99.90;;;;;;2024715;71;20105;-75
2022/11/26 13:27:12;;;;;;;;;;;14.60;99.90;;;;;;2024335;70;20105;-77
2022/11/26 13:29:57;;;;;;;;;;;14.50;99.90;;;;;;2024075;70;20136;-77
2022/11/26 13:32:28;;;;;;;;;;;14.60;99.90;;;;;;2024292;71;20188;-77
2022/11/26 13:34:56;;;;;;;;;;;14.40;99.90;;;;;;2023796;70;20206;-77
2022/11/26 13:37:25;;;;;;;;;;;14.50;99.90;;;;;;2023926;70;20147;-77
2022/11/26 13:39:56;;;;;;;;;;;14.20;99.90;;;;;;2024063;70;20131;-77
2022/11/26 13:42:24;;;;;;;;;;;14.20;99.90;;;;;;2024363;71;20136;-77
2022/11/26 13:45:02;;;;;;;;;;;14.20;99.90;;;;;;2024406;71;20321;-77
2022/11/26 13:47:48;;;;;;;;;;;14.10;99.90;;;;;;2024390;71;20181;-78
2022/11/26 13:50:22;;;;;;;;;;;14.30;99.90;;;;;;2024636;71;20135;-78
2022/11/26 13:52:50;;;;;;;;;;;14.40;99.90;;;;;;2024448;71;20110;-78
2022/11/26 13:55:27;;;;;;;;;;;14.70;99.90;;;;;;2010174;71;20230;-79
2022/11/26 13:57:55;;;;;;;;;;;15.10;99.90;;;;;;2024795;71;20194;-79
2022/11/26 14:00:29;;;;;;;;;;;14.60;99.90;;;;;;2024932;71;20145;-79
2022/11/26 14:02:57;;;;;;;;;;;14.40;99.90;;;;;;2024821;71;20128;-79
2022/11/26 14:05:26;;;;;;;;;;;14.40;99.90;;;;;;2024763;71;20160;-79
2022/11/26 14:07:53;;;;;;;;;;;13.70;99.90;;;;;;2022323;71;20294;-79
2022/11/26 14:10:36;;;;;;;;;;;14.10;99.90;;;;;;2008155;71;20094;-79
2022/11/26 14:13:07;;;;;;;;;;;13.90;99.90;;;;;;2024892;71;20106;-78
2022/11/26 14:15:44;;;;;;;;;;;14.20;99.90;;;;;;2024623;70;20370;-79
2022/11/26 14:18:11;;;;;;;;;;;14.00;99.90;;;;;;2024910;71;20366;-78
2022/11/26 14:21:02;;;;;;;;;;;14.00;99.90;;;;;;2025346;71;20155;-81
2022/11/26 14:23:34;;;;;;;;;;;14.20;99.90;;;;;;2023392;70;20152;-81
2022/11/26 14:26:01;;;;;;;;;;;14.10;99.90;;;;;;2006371;71;20171;-80
2022/11/26 14:28:28;;;;;;;;;;;14.00;99.90;;;;;;2024900;71;20110;-80
2022/11/26 14:30:54;;;;;;;;;;;13.50;99.90;;;;;;2024897;71;20226;-80
2022/11/26 14:33:22;;;;;;;;;;;12.90;99.90;;;;;;2024773;71;20310;-81
2022/11/26 14:35:55;;;;;;;;;;;12.80;99.90;;;;;;2024797;71;20102;-81
2022/11/26 14:38:26;;;;;;;;;;;12.60;99.90;;;;;;2025256;71;20109;-80